sensor_id;sensor_type;location;lat;lon;timestamp;P1;durP1;ratioP1;P2;durP2;ratioP2
2620;SDS011;1320;48.128;11.592;2022-08-26T00:02:14;19.93;;;12.47;;
2620;SDS011;1320;48.128;11.592;2022-08-26T00:04:40;17.60;;;9.93;;
2620;SDS011;1320;48.128;11.592;2022-08-26T00:07:06;20.50;;;12.23;;
2620;SDS011;1320;48.128;11.592;2022-08-26T00:09:31;18.80;;;12.07;;
2620;SDS011;1320;48.128;11.592;2022-08-26T00:11:57;20.07;;;11.90;;
2620;SDS011;1320;48.128;11.592;2022-08-26T00:14:23;20.10;;;12.40;;
2620;SDS011;1320;48.128;11.592;2022-08-26T00:16:49;18.97;;;11.80;;
2620;SDS011;1320;48.128;11.592;2022-08-26T00:19:16;21.83;;;12.20;;
2620;SDS011;1320;48.128;11.592;2022-08-26T00:21:44;19.13;;;13.27;;
2620;SDS011;1320;48.128;11.592;2022-08-26T00:24:10;20.23;;;12.70;;
2620;SDS011;1320;48.128;11.592;2022-08-26T00:26:37;21.53;;;12.67;;
2620;SDS011;1320;48.128;11.592;2022-08-26T00:29:03;21.93;;;14.10;;
2620;SDS011;1320;48.128;11.592;2022-08-26T00:31:29;18.97;;;12.60;;
2620;SDS011;1320;48.128;11.592;2022-08-26T00:33:55;27.13;;;15.17;;
2620;SDS011;1320;48.128;11.592;2022-08-26T00:36:20;19.33;;;12.03;;
2620;SDS011;1320;48.128;11.592;2022-08-26T00:38:46;19.57;;;11.97;;
2620;SDS011;1320;48.128;11.592;2022-08-26T00:41:12;19.03;;;13.23;;
2620;SDS011;1320;48.128;11.592;2022-08-26T00:43:37;19.47;;;11.83;;
2620;SDS011;1320;48.128;11.592;2022-08-26T00:46:05;23.23;;;12.57;;
2620;SDS011;1320;48.128;11.592;2022-08-26T00:48:38;22.30;;;13.60;;
2620;SDS011;1320;48.128;11.592;2022-08-26T00:51:10;19.33;;;12.90;;
2620;SDS011;1320;48.128;11.592;2022-08-26T00:53:41;19.70;;;12.40;;
2620;SDS011;1320;48.128;11.592;2022-08-26T00:56:29;20.47;;;13.13;;
2620;SDS011;1320;48.128;11.592;2022-08-26T00:59:00;20.27;;;12.03;;
2620;SDS011;1320;48.128;11.592;2022-08-26T01:01:29;21.03;;;11.60;;
2620;SDS011;1320;48.128;11.592;2022-08-26T01:03:55;19.47;;;12.80;;
2620;SDS011;1320;48.128;11.592;2022-08-26T01:06:22;20.37;;;12.60;;
2620;SDS011;1320;48.128;11.592;2022-08-26T01:08:48;22.70;;;12.80;;
2620;SDS011;1320;48.128;11.592;2022-08-26T01:11:15;23.50;;;12.80;;
2620;SDS011;1320;48.128;11.592;2022-08-26T01:13:40;18.23;;;12.00;;
2620;SDS011;1320;48.128;11.592;2022-08-26T01:16:06;24.73;;;13.37;;
2620;SDS011;1320;48.128;11.592;2022-08-26T01:18:38;20.97;;;13.03;;
2620;SDS011;1320;48.128;11.592;2022-08-26T01:21:09;23.53;;;13.00;;
2620;SDS011;1320;48.128;11.592;2022-08-26T01:23:50;22.03;;;14.20;;
2620;SDS011;1320;48.128;11.592;2022-08-26T01:26:18;24.60;;;13.20;;
2620;SDS011;1320;48.128;11.592;2022-08-26T01:28:47;19.20;;;11.10;;
2620;SDS011;1320;48.128;11.592;2022-08-26T01:31:15;25.03;;;13.70;;
2620;SDS011;1320;48.128;11.592;2022-08-26T01:33:45;26.17;;;14.00;;
2620;SDS011;1320;48.128;11.592;2022-08-26T01:36:16;20.60;;;12.93;;
2620;SDS011;1320;48.128;11.592;2022-08-26T01:38:42;22.20;;;15.20;;
2620;SDS011;1320;48.128;11.592;2022-08-26T01:41:09;18.30;;;13.00;;
2620;SDS011;1320;48.128;11.592;2022-08-26T01:43:39;16.70;;;12.63;;
2620;SDS011;1320;48.128;11.592;2022-08-26T01:46:09;19.33;;;14.00;;
2620;SDS011;1320;48.128;11.592;2022-08-26T01:48:36;20.70;;;12.33;;
2620;SDS011;1320;48.128;11.592;2022-08-26T01:51:04;23.90;;;13.80;;
2620;SDS011;1320;48.128;11.592;2022-08-26T01:53:34;18.60;;;12.20;;
2620;SDS011;1320;48.128;11.592;2022-08-26T01:56:01;20.27;;;12.60;;
2620;SDS011;1320;48.128;11.592;2022-08-26T01:58:29;24.13;;;13.40;;
2620;SDS011;1320;48.128;11.592;2022-08-26T02:01:00;27.97;;;12.07;;
2620;SDS011;1320;48.128;11.592;2022-08-26T02:03:27;20.27;;;14.10;;
2620;SDS011;1320;48.128;11.592;2022-08-26T02:05:58;20.20;;;12.90;;
2620;SDS011;1320;48.128;11.592;2022-08-26T02:08:34;20.70;;;13.03;;
2620;SDS011;1320;48.128;11.592;2022-08-26T02:11:08;19.27;;;11.57;;
2620;SDS011;1320;48.128;11.592;2022-08-26T02:13:42;25.70;;;12.77;;
2620;SDS011;1320;48.128;11.592;2022-08-26T02:16:11;19.57;;;12.23;;
2620;SDS011;1320;48.128;11.592;2022-08-26T02:18:39;22.83;;;13.50;;
2620;SDS011;1320;48.128;11.592;2022-08-26T02:21:07;25.43;;;13.80;;
2620;SDS011;1320;48.128;11.592;2022-08-26T02:23:35;20.93;;;14.80;;
2620;SDS011;1320;48.128;11.592;2022-08-26T02:28:39;21.43;;;13.00;;
2620;SDS011;1320;48.128;11.592;2022-08-26T02:31:13;19.17;;;12.87;;
2620;SDS011;1320;48.128;11.592;2022-08-26T02:33:39;20.77;;;12.77;;
2620;SDS011;1320;48.128;11.592;2022-08-26T02:36:04;21.90;;;11.77;;
2620;SDS011;1320;48.128;11.592;2022-08-26T02:38:31;22.20;;;14.23;;
2620;SDS011;1320;48.128;11.592;2022-08-26T02:40:57;23.87;;;13.23;;
2620;SDS011;1320;48.128;11.592;2022-08-26T02:43:22;24.67;;;13.50;;
2620;SDS011;1320;48.128;11.592;2022-08-26T02:45:48;21.43;;;11.87;;
2620;SDS011;1320;48.128;11.592;2022-08-26T02:48:14;24.10;;;14.23;;
2620;SDS011;1320;48.128;11.592;2022-08-26T02:50:42;18.97;;;12.73;;
2620;SDS011;1320;48.128;11.592;2022-08-26T02:53:10;20.07;;;12.77;;
2620;SDS011;1320;48.128;11.592;2022-08-26T02:55:36;20.90;;;11.80;;
2620;SDS011;1320;48.128;11.592;2022-08-26T02:58:02;19.63;;;12.63;;
2620;SDS011;1320;48.128;11.592;2022-08-26T03:00:28;24.90;;;13.23;;
2620;SDS011;1320;48.128;11.592;2022-08-26T03:02:56;19.70;;;12.10;;
2620;SDS011;1320;48.128;11.592;2022-08-26T03:05:22;28.57;;;13.40;;
2620;SDS011;1320;48.128;11.592;2022-08-26T03:07:49;19.90;;;11.50;;
2620;SDS011;1320;48.128;11.592;2022-08-26T03:10:15;24.33;;;12.10;;
2620;SDS011;1320;48.128;11.592;2022-08-26T03:12:41;21.50;;;12.17;;
2620;SDS011;1320;48.128;11.592;2022-08-26T03:15:09;23.57;;;12.80;;
2620;SDS011;1320;48.128;11.592;2022-08-26T03:17:36;20.87;;;13.07;;
2620;SDS011;1320;48.128;11.592;2022-08-26T03:20:03;23.03;;;13.43;;
2620;SDS011;1320;48.128;11.592;2022-08-26T03:22:33;19.93;;;13.23;;
2620;SDS011;1320;48.128;11.592;2022-08-26T03:25:00;24.43;;;11.87;;
2620;SDS011;1320;48.128;11.592;2022-08-26T03:27:27;24.23;;;12.43;;
2620;SDS011;1320;48.128;11.592;2022-08-26T03:29:53;16.70;;;11.63;;
2620;SDS011;1320;48.128;11.592;2022-08-26T03:32:37;21.10;;;12.90;;
2620;SDS011;1320;48.128;11.592;2022-08-26T03:35:03;17.80;;;11.67;;
2620;SDS011;1320;48.128;11.592;2022-08-26T03:37:29;20.13;;;11.03;;
2620;SDS011;1320;48.128;11.592;2022-08-26T03:39:55;14.93;;;11.00;;
2620;SDS011;1320;48.128;11.592;2022-08-26T03:42:20;19.27;;;12.13;;
2620;SDS011;1320;48.128;11.592;2022-08-26T03:44:46;17.13;;;10.03;;
2620;SDS011;1320;48.128;11.592;2022-08-26T03:47:12;16.27;;;10.43;;
2620;SDS011;1320;48.128;11.592;2022-08-26T03:49:38;20.53;;;11.07;;
2620;SDS011;1320;48.128;11.592;2022-08-26T03:52:04;30.30;;;11.17;;
2620;SDS011;1320;48.128;11.592;2022-08-26T03:54:31;20.17;;;10.87;;
2620;SDS011;1320;48.128;11.592;2022-08-26T03:56:57;20.67;;;11.50;;
2620;SDS011;1320;48.128;11.592;2022-08-26T03:59:22;19.57;;;10.80;;
2620;SDS011;1320;48.128;11.592;2022-08-26T04:01:48;17.00;;;10.77;;
2620;SDS011;1320;48.128;11.592;2022-08-26T04:04:14;16.87;;;10.90;;
2620;SDS011;1320;48.128;11.592;2022-08-26T04:06:41;21.80;;;12.40;;
2620;SDS011;1320;48.128;11.592;2022-08-26T04:09:11;18.70;;;11.20;;
2620;SDS011;1320;48.128;11.592;2022-08-26T04:11:38;17.13;;;11.00;;
2620;SDS011;1320;48.128;11.592;2022-08-26T04:14:07;14.73;;;9.23;;
2620;SDS011;1320;48.128;11.592;2022-08-26T04:16:35;17.30;;;10.17;;
2620;SDS011;1320;48.128;11.592;2022-08-26T04:19:01;16.80;;;10.40;;
2620;SDS011;1320;48.128;11.592;2022-08-26T04:21:27;21.20;;;11.70;;
2620;SDS011;1320;48.128;11.592;2022-08-26T04:23:53;19.97;;;12.33;;
2620;SDS011;1320;48.128;11.592;2022-08-26T04:26:20;17.40;;;11.40;;
2620;SDS011;1320;48.128;11.592;2022-08-26T04:28:47;16.47;;;10.53;;
2620;SDS011;1320;48.128;11.592;2022-08-26T04:31:14;16.03;;;10.97;;
2620;SDS011;1320;48.128;11.592;2022-08-26T04:33:42;17.40;;;11.47;;
2620;SDS011;1320;48.128;11.592;2022-08-26T04:36:09;18.70;;;11.17;;
2620;SDS011;1320;48.128;11.592;2022-08-26T04:38:35;19.03;;;10.50;;
2620;SDS011;1320;48.128;11.592;2022-08-26T04:41:02;16.40;;;11.00;;
2620;SDS011;1320;48.128;11.592;2022-08-26T04:43:29;18.33;;;11.80;;
2620;SDS011;1320;48.128;11.592;2022-08-26T04:45:56;19.50;;;10.80;;
2620;SDS011;1320;48.128;11.592;2022-08-26T04:48:23;17.30;;;10.87;;
2620;SDS011;1320;48.128;11.592;2022-08-26T04:50:50;21.83;;;11.33;;
2620;SDS011;1320;48.128;11.592;2022-08-26T04:53:16;19.10;;;11.27;;
2620;SDS011;1320;48.128;11.592;2022-08-26T04:55:42;16.73;;;9.47;;
2620;SDS011;1320;48.128;11.592;2022-08-26T04:58:07;16.00;;;9.73;;
2620;SDS011;1320;48.128;11.592;2022-08-26T05:00:33;22.33;;;11.27;;
2620;SDS011;1320;48.128;11.592;2022-08-26T05:02:59;19.53;;;11.77;;
2620;SDS011;1320;48.128;11.592;2022-08-26T05:05:25;17.87;;;10.60;;
2620;SDS011;1320;48.128;11.592;2022-08-26T05:07:51;18.87;;;10.80;;
2620;SDS011;1320;48.128;11.592;2022-08-26T05:10:17;20.47;;;10.40;;
2620;SDS011;1320;48.128;11.592;2022-08-26T05:12:42;18.23;;;10.93;;
2620;SDS011;1320;48.128;11.592;2022-08-26T05:15:08;19.27;;;12.50;;
2620;SDS011;1320;48.128;11.592;2022-08-26T05:17:35;16.37;;;11.20;;
2620;SDS011;1320;48.128;11.592;2022-08-26T05:20:01;19.23;;;10.03;;
2620;SDS011;1320;48.128;11.592;2022-08-26T05:22:27;17.13;;;10.80;;
2620;SDS011;1320;48.128;11.592;2022-08-26T05:24:53;18.33;;;10.90;;
2620;SDS011;1320;48.128;11.592;2022-08-26T05:27:18;19.87;;;10.27;;
2620;SDS011;1320;48.128;11.592;2022-08-26T05:29:44;16.37;;;9.90;;
2620;SDS011;1320;48.128;11.592;2022-08-26T05:32:09;16.80;;;10.77;;
2620;SDS011;1320;48.128;11.592;2022-08-26T05:34:35;18.63;;;10.60;;
2620;SDS011;1320;48.128;11.592;2022-08-26T05:37:01;19.80;;;10.30;;
2620;SDS011;1320;48.128;11.592;2022-08-26T05:39:30;16.60;;;11.10;;
2620;SDS011;1320;48.128;11.592;2022-08-26T05:41:57;18.10;;;9.93;;
2620;SDS011;1320;48.128;11.592;2022-08-26T05:44:23;19.50;;;11.43;;
2620;SDS011;1320;48.128;11.592;2022-08-26T05:46:49;22.80;;;10.60;;
2620;SDS011;1320;48.128;11.592;2022-08-26T05:49:15;16.10;;;10.43;;
2620;SDS011;1320;48.128;11.592;2022-08-26T05:51:41;17.10;;;10.60;;
2620;SDS011;1320;48.128;11.592;2022-08-26T05:54:09;16.97;;;10.80;;
2620;SDS011;1320;48.128;11.592;2022-08-26T05:56:35;22.20;;;10.53;;
2620;SDS011;1320;48.128;11.592;2022-08-26T05:59:01;14.33;;;8.87;;
2620;SDS011;1320;48.128;11.592;2022-08-26T06:01:27;18.43;;;10.80;;
2620;SDS011;1320;48.128;11.592;2022-08-26T06:03:54;17.90;;;11.60;;
2620;SDS011;1320;48.128;11.592;2022-08-26T06:06:24;18.87;;;11.93;;
2620;SDS011;1320;48.128;11.592;2022-08-26T06:08:52;16.00;;;10.53;;
2620;SDS011;1320;48.128;11.592;2022-08-26T06:11:20;15.50;;;12.13;;
2620;SDS011;1320;48.128;11.592;2022-08-26T06:13:50;20.27;;;10.00;;
2620;SDS011;1320;48.128;11.592;2022-08-26T06:16:22;17.87;;;9.70;;
2620;SDS011;1320;48.128;11.592;2022-08-26T06:18:49;16.07;;;10.97;;
2620;SDS011;1320;48.128;11.592;2022-08-26T06:21:17;18.30;;;10.60;;
2620;SDS011;1320;48.128;11.592;2022-08-26T06:24:00;17.17;;;10.73;;
2620;SDS011;1320;48.128;11.592;2022-08-26T06:29:23;16.00;;;10.57;;
2620;SDS011;1320;48.128;11.592;2022-08-26T06:31:50;20.90;;;11.47;;
2620;SDS011;1320;48.128;11.592;2022-08-26T06:34:17;14.87;;;10.20;;
2620;SDS011;1320;48.128;11.592;2022-08-26T06:36:43;14.83;;;9.83;;
2620;SDS011;1320;48.128;11.592;2022-08-26T06:39:10;17.40;;;11.17;;
2620;SDS011;1320;48.128;11.592;2022-08-26T06:41:37;17.20;;;9.80;;
2620;SDS011;1320;48.128;11.592;2022-08-26T06:44:05;17.30;;;11.60;;
2620;SDS011;1320;48.128;11.592;2022-08-26T06:46:32;13.17;;;8.50;;
2620;SDS011;1320;48.128;11.592;2022-08-26T06:48:58;14.17;;;9.97;;
2620;SDS011;1320;48.128;11.592;2022-08-26T06:51:28;14.47;;;10.17;;
2620;SDS011;1320;48.128;11.592;2022-08-26T06:53:56;19.90;;;11.57;;
2620;SDS011;1320;48.128;11.592;2022-08-26T06:56:28;16.30;;;10.67;;
2620;SDS011;1320;48.128;11.592;2022-08-26T06:58:59;14.20;;;10.73;;
2620;SDS011;1320;48.128;11.592;2022-08-26T07:01:26;17.33;;;11.20;;
2620;SDS011;1320;48.128;11.592;2022-08-26T07:03:54;15.30;;;9.77;;
2620;SDS011;1320;48.128;11.592;2022-08-26T07:06:21;15.07;;;10.80;;
2620;SDS011;1320;48.128;11.592;2022-08-26T07:08:47;17.80;;;10.87;;
2620;SDS011;1320;48.128;11.592;2022-08-26T07:11:15;14.13;;;10.30;;
2620;SDS011;1320;48.128;11.592;2022-08-26T07:13:41;15.40;;;10.60;;
2620;SDS011;1320;48.128;11.592;2022-08-26T07:16:07;18.77;;;10.40;;
2620;SDS011;1320;48.128;11.592;2022-08-26T07:18:37;17.23;;;10.40;;
2620;SDS011;1320;48.128;11.592;2022-08-26T07:21:05;18.90;;;9.50;;
2620;SDS011;1320;48.128;11.592;2022-08-26T07:23:32;16.70;;;11.03;;
2620;SDS011;1320;48.128;11.592;2022-08-26T07:25:58;13.50;;;9.90;;
2620;SDS011;1320;48.128;11.592;2022-08-26T07:28:31;17.73;;;10.23;;
2620;SDS011;1320;48.128;11.592;2022-08-26T07:30:56;17.17;;;10.10;;
2620;SDS011;1320;48.128;11.592;2022-08-26T07:33:22;21.13;;;9.93;;
2620;SDS011;1320;48.128;11.592;2022-08-26T07:35:48;17.70;;;10.90;;
2620;SDS011;1320;48.128;11.592;2022-08-26T07:38:14;13.97;;;11.60;;
2620;SDS011;1320;48.128;11.592;2022-08-26T07:40:40;14.47;;;10.80;;
2620;SDS011;1320;48.128;11.592;2022-08-26T07:43:06;17.40;;;11.50;;
2620;SDS011;1320;48.128;11.592;2022-08-26T07:45:33;12.43;;;10.00;;
2620;SDS011;1320;48.128;11.592;2022-08-26T07:47:59;18.43;;;11.37;;
2620;SDS011;1320;48.128;11.592;2022-08-26T07:50:25;13.70;;;11.67;;
2620;SDS011;1320;48.128;11.592;2022-08-26T07:52:50;13.40;;;10.20;;
2620;SDS011;1320;48.128;11.592;2022-08-26T07:55:16;16.47;;;11.37;;
2620;SDS011;1320;48.128;11.592;2022-08-26T07:57:42;16.40;;;10.07;;
2620;SDS011;1320;48.128;11.592;2022-08-26T08:00:09;18.90;;;9.27;;
2620;SDS011;1320;48.128;11.592;2022-08-26T08:02:36;15.63;;;11.50;;
2620;SDS011;1320;48.128;11.592;2022-08-26T08:05:02;19.27;;;12.17;;
2620;SDS011;1320;48.128;11.592;2022-08-26T08:07:28;16.23;;;10.70;;
2620;SDS011;1320;48.128;11.592;2022-08-26T08:09:54;12.80;;;10.10;;
2620;SDS011;1320;48.128;11.592;2022-08-26T08:12:19;22.33;;;10.73;;
2620;SDS011;1320;48.128;11.592;2022-08-26T08:14:47;19.30;;;11.40;;
2620;SDS011;1320;48.128;11.592;2022-08-26T08:17:13;14.23;;;11.07;;
2620;SDS011;1320;48.128;11.592;2022-08-26T08:19:39;14.97;;;9.30;;
2620;SDS011;1320;48.128;11.592;2022-08-26T08:22:06;14.47;;;10.87;;
2620;SDS011;1320;48.128;11.592;2022-08-26T08:24:32;15.83;;;11.27;;
2620;SDS011;1320;48.128;11.592;2022-08-26T08:27:01;14.70;;;10.83;;
2620;SDS011;1320;48.128;11.592;2022-08-26T08:29:27;17.40;;;10.00;;
2620;SDS011;1320;48.128;11.592;2022-08-26T08:31:57;15.00;;;9.17;;
2620;SDS011;1320;48.128;11.592;2022-08-26T08:34:24;16.33;;;12.20;;
2620;SDS011;1320;48.128;11.592;2022-08-26T08:36:51;15.03;;;10.37;;
2620;SDS011;1320;48.128;11.592;2022-08-26T08:39:17;14.60;;;11.37;;
2620;SDS011;1320;48.128;11.592;2022-08-26T08:44:19;14.97;;;10.87;;
2620;SDS011;1320;48.128;11.592;2022-08-26T08:46:48;13.50;;;10.53;;
2620;SDS011;1320;48.128;11.592;2022-08-26T08:49:16;11.60;;;9.10;;
2620;SDS011;1320;48.128;11.592;2022-08-26T08:51:51;18.40;;;10.93;;
2620;SDS011;1320;48.128;11.592;2022-08-26T08:54:18;15.13;;;12.93;;
2620;SDS011;1320;48.128;11.592;2022-08-26T08:56:51;12.90;;;10.37;;
2620;SDS011;1320;48.128;11.592;2022-08-26T08:59:24;18.10;;;12.00;;
2620;SDS011;1320;48.128;11.592;2022-08-26T09:02:05;19.03;;;14.37;;
2620;SDS011;1320;48.128;11.592;2022-08-26T09:07:26;17.00;;;10.70;;
2620;SDS011;1320;48.128;11.592;2022-08-26T09:09:57;20.93;;;9.83;;
2620;SDS011;1320;48.128;11.592;2022-08-26T09:12:42;13.57;;;9.73;;
2620;SDS011;1320;48.128;11.592;2022-08-26T09:15:17;15.23;;;10.43;;
2620;SDS011;1320;48.128;11.592;2022-08-26T09:23:12;15.73;;;11.37;;
2620;SDS011;1320;48.128;11.592;2022-08-26T09:25:49;14.90;;;11.30;;
2620;SDS011;1320;48.128;11.592;2022-08-26T09:28:23;13.67;;;10.33;;
2620;SDS011;1320;48.128;11.592;2022-08-26T09:33:34;16.93;;;9.70;;
2620;SDS011;1320;48.128;11.592;2022-08-26T09:36:20;15.57;;;12.00;;
2620;SDS011;1320;48.128;11.592;2022-08-26T09:38:56;15.83;;;11.37;;
2620;SDS011;1320;48.128;11.592;2022-08-26T09:41:24;18.10;;;13.43;;
2620;SDS011;1320;48.128;11.592;2022-08-26T09:44:15;16.80;;;12.40;;
2620;SDS011;1320;48.128;11.592;2022-08-26T09:47:01;16.87;;;12.17;;
2620;SDS011;1320;48.128;11.592;2022-08-26T09:52:02;13.37;;;10.40;;
2620;SDS011;1320;48.128;11.592;2022-08-26T09:54:30;13.47;;;9.97;;
2620;SDS011;1320;48.128;11.592;2022-08-26T09:59:50;14.20;;;10.60;;
2620;SDS011;1320;48.128;11.592;2022-08-26T10:04:52;13.53;;;11.37;;
2620;SDS011;1320;48.128;11.592;2022-08-26T10:07:42;19.60;;;12.73;;
2620;SDS011;1320;48.128;11.592;2022-08-26T10:15:27;19.73;;;14.27;;
2620;SDS011;1320;48.128;11.592;2022-08-26T10:18:08;15.53;;;11.00;;
2620;SDS011;1320;48.128;11.592;2022-08-26T10:20:50;15.97;;;13.70;;
2620;SDS011;1320;48.128;11.592;2022-08-26T10:23:27;14.30;;;11.70;;
2620;SDS011;1320;48.128;11.592;2022-08-26T10:26:11;17.13;;;12.93;;
2620;SDS011;1320;48.128;11.592;2022-08-26T10:31:27;14.80;;;13.07;;
2620;SDS011;1320;48.128;11.592;2022-08-26T10:34:03;14.37;;;12.93;;
2620;SDS011;1320;48.128;11.592;2022-08-26T10:36:30;16.40;;;14.70;;
2620;SDS011;1320;48.128;11.592;2022-08-26T10:39:20;16.70;;;14.90;;
2620;SDS011;1320;48.128;11.592;2022-08-26T10:42:15;14.80;;;13.30;;
2620;SDS011;1320;48.128;11.592;2022-08-26T10:44:49;14.00;;;12.60;;
2620;SDS011;1320;48.128;11.592;2022-08-26T10:47:42;15.97;;;14.37;;
2620;SDS011;1320;48.128;11.592;2022-08-26T10:50:18;15.40;;;12.73;;
2620;SDS011;1320;48.128;11.592;2022-08-26T10:52:51;18.03;;;11.30;;
2620;SDS011;1320;48.128;11.592;2022-08-26T10:56:07;16.50;;;11.70;;
2620;SDS011;1320;48.128;11.592;2022-08-26T11:01:37;12.53;;;11.17;;
2620;SDS011;1320;48.128;11.592;2022-08-26T11:10:01;17.07;;;12.90;;
2620;SDS011;1320;48.128;11.592;2022-08-26T11:14:59;15.93;;;12.53;;
2620;SDS011;1320;48.128;11.592;2022-08-26T11:20:10;14.67;;;10.83;;
2620;SDS011;1320;48.128;11.592;2022-08-26T11:28:34;15.40;;;12.63;;
2620;SDS011;1320;48.128;11.592;2022-08-26T11:31:02;13.70;;;11.90;;
2620;SDS011;1320;48.128;11.592;2022-08-26T11:39:15;16.33;;;11.47;;
2620;SDS011;1320;48.128;11.592;2022-08-26T11:41:56;16.43;;;10.90;;
2620;SDS011;1320;48.128;11.592;2022-08-26T11:44:25;12.53;;;11.07;;
2620;SDS011;1320;48.128;11.592;2022-08-26T11:46:59;15.03;;;10.50;;
2620;SDS011;1320;48.128;11.592;2022-08-26T11:49:27;17.30;;;11.17;;
2620;SDS011;1320;48.128;11.592;2022-08-26T11:54:57;11.03;;;9.83;;
2620;SDS011;1320;48.128;11.592;2022-08-26T11:57:26;13.03;;;10.60;;
2620;SDS011;1320;48.128;11.592;2022-08-26T11:59:53;13.07;;;11.67;;
2620;SDS011;1320;48.128;11.592;2022-08-26T12:02:20;17.83;;;13.80;;
2620;SDS011;1320;48.128;11.592;2022-08-26T12:04:47;12.10;;;10.80;;
2620;SDS011;1320;48.128;11.592;2022-08-26T12:07:14;14.60;;;11.83;;
2620;SDS011;1320;48.128;11.592;2022-08-26T12:12:53;12.30;;;10.77;;
2620;SDS011;1320;48.128;11.592;2022-08-26T12:15:22;15.83;;;9.47;;
2620;SDS011;1320;48.128;11.592;2022-08-26T12:17:48;14.40;;;11.33;;
2620;SDS011;1320;48.128;11.592;2022-08-26T12:20:19;13.03;;;11.70;;
2620;SDS011;1320;48.128;11.592;2022-08-26T12:23:10;13.80;;;11.67;;
2620;SDS011;1320;48.128;11.592;2022-08-26T12:26:32;15.10;;;9.90;;
2620;SDS011;1320;48.128;11.592;2022-08-26T12:29:00;13.43;;;12.07;;
2620;SDS011;1320;48.128;11.592;2022-08-26T12:31:27;11.07;;;9.87;;
2620;SDS011;1320;48.128;11.592;2022-08-26T12:33:54;11.77;;;9.60;;
2620;SDS011;1320;48.128;11.592;2022-08-26T12:36:27;10.60;;;9.00;;
2620;SDS011;1320;48.128;11.592;2022-08-26T12:39:09;12.50;;;9.77;;
2620;SDS011;1320;48.128;11.592;2022-08-26T12:41:47;13.50;;;9.33;;
2620;SDS011;1320;48.128;11.592;2022-08-26T12:44:36;10.27;;;9.17;;
2620;SDS011;1320;48.128;11.592;2022-08-26T12:47:41;12.37;;;8.77;;
2620;SDS011;1320;48.128;11.592;2022-08-26T12:50:09;14.50;;;9.10;;
2620;SDS011;1320;48.128;11.592;2022-08-26T12:58:42;13.47;;;10.20;;
2620;SDS011;1320;48.128;11.592;2022-08-26T13:06:23;13.03;;;8.60;;
2620;SDS011;1320;48.128;11.592;2022-08-26T13:11:34;12.13;;;10.83;;
2620;SDS011;1320;48.128;11.592;2022-08-26T13:14:19;14.67;;;11.70;;
2620;SDS011;1320;48.128;11.592;2022-08-26T13:16:46;13.00;;;8.50;;
2620;SDS011;1320;48.128;11.592;2022-08-26T13:19:20;12.70;;;10.17;;
2620;SDS011;1320;48.128;11.592;2022-08-26T13:24:22;14.20;;;10.87;;
2620;SDS011;1320;48.128;11.592;2022-08-26T13:26:55;11.57;;;8.67;;
2620;SDS011;1320;48.128;11.592;2022-08-26T13:29:21;12.40;;;8.73;;
2620;SDS011;1320;48.128;11.592;2022-08-26T13:31:47;13.17;;;9.90;;
2620;SDS011;1320;48.128;11.592;2022-08-26T13:34:14;12.27;;;10.00;;
2620;SDS011;1320;48.128;11.592;2022-08-26T13:36:48;11.67;;;9.93;;
2620;SDS011;1320;48.128;11.592;2022-08-26T13:39:16;11.13;;;8.80;;
2620;SDS011;1320;48.128;11.592;2022-08-26T13:41:42;14.73;;;10.60;;
2620;SDS011;1320;48.128;11.592;2022-08-26T13:44:08;13.47;;;10.73;;
2620;SDS011;1320;48.128;11.592;2022-08-26T13:46:34;15.00;;;9.90;;
2620;SDS011;1320;48.128;11.592;2022-08-26T13:49:00;12.40;;;8.43;;
2620;SDS011;1320;48.128;11.592;2022-08-26T13:51:27;13.20;;;9.63;;
2620;SDS011;1320;48.128;11.592;2022-08-26T13:53:54;10.83;;;8.37;;
2620;SDS011;1320;48.128;11.592;2022-08-26T13:56:20;11.90;;;7.77;;
2620;SDS011;1320;48.128;11.592;2022-08-26T13:58:46;12.00;;;8.87;;
2620;SDS011;1320;48.128;11.592;2022-08-26T14:01:13;12.83;;;11.10;;
2620;SDS011;1320;48.128;11.592;2022-08-26T14:03:39;14.50;;;10.23;;
2620;SDS011;1320;48.128;11.592;2022-08-26T14:06:05;10.90;;;8.13;;
2620;SDS011;1320;48.128;11.592;2022-08-26T14:08:31;12.00;;;8.53;;
2620;SDS011;1320;48.128;11.592;2022-08-26T14:10:57;12.50;;;8.80;;
2620;SDS011;1320;48.128;11.592;2022-08-26T14:13:23;11.43;;;9.07;;
2620;SDS011;1320;48.128;11.592;2022-08-26T14:15:49;13.83;;;9.13;;
2620;SDS011;1320;48.128;11.592;2022-08-26T14:18:16;13.10;;;8.60;;
2620;SDS011;1320;48.128;11.592;2022-08-26T14:20:47;12.03;;;8.03;;
2620;SDS011;1320;48.128;11.592;2022-08-26T14:23:14;9.27;;;7.17;;
2620;SDS011;1320;48.128;11.592;2022-08-26T14:25:41;13.30;;;9.57;;
2620;SDS011;1320;48.128;11.592;2022-08-26T14:28:07;12.47;;;8.67;;
2620;SDS011;1320;48.128;11.592;2022-08-26T14:30:33;10.40;;;8.53;;
2620;SDS011;1320;48.128;11.592;2022-08-26T14:33:00;11.23;;;9.10;;
2620;SDS011;1320;48.128;11.592;2022-08-26T14:35:27;11.67;;;8.43;;
2620;SDS011;1320;48.128;11.592;2022-08-26T14:37:54;12.53;;;7.97;;
2620;SDS011;1320;48.128;11.592;2022-08-26T14:40:20;13.43;;;8.10;;
2620;SDS011;1320;48.128;11.592;2022-08-26T14:42:53;15.53;;;8.90;;
2620;SDS011;1320;48.128;11.592;2022-08-26T14:45:20;10.00;;;7.50;;
2620;SDS011;1320;48.128;11.592;2022-08-26T14:47:48;11.73;;;8.57;;
2620;SDS011;1320;48.128;11.592;2022-08-26T14:50:16;9.87;;;7.10;;
2620;SDS011;1320;48.128;11.592;2022-08-26T14:52:44;8.97;;;8.03;;
2620;SDS011;1320;48.128;11.592;2022-08-26T14:55:29;10.03;;;7.83;;
2620;SDS011;1320;48.128;11.592;2022-08-26T14:57:56;14.70;;;9.33;;
2620;SDS011;1320;48.128;11.592;2022-08-26T15:00:22;13.17;;;10.27;;
2620;SDS011;1320;48.128;11.592;2022-08-26T15:02:48;9.07;;;7.17;;
2620;SDS011;1320;48.128;11.592;2022-08-26T15:05:13;11.10;;;7.50;;
2620;SDS011;1320;48.128;11.592;2022-08-26T15:07:40;9.77;;;7.53;;
2620;SDS011;1320;48.128;11.592;2022-08-26T15:10:06;10.10;;;7.03;;
2620;SDS011;1320;48.128;11.592;2022-08-26T15:12:35;9.80;;;8.37;;
2620;SDS011;1320;48.128;11.592;2022-08-26T15:15:01;10.83;;;8.07;;
2620;SDS011;1320;48.128;11.592;2022-08-26T15:17:28;10.50;;;9.30;;
2620;SDS011;1320;48.128;11.592;2022-08-26T15:19:53;11.87;;;10.60;;
2620;SDS011;1320;48.128;11.592;2022-08-26T15:22:19;14.50;;;9.90;;
2620;SDS011;1320;48.128;11.592;2022-08-26T15:24:45;13.40;;;8.07;;
2620;SDS011;1320;48.128;11.592;2022-08-26T15:27:10;14.30;;;8.67;;
2620;SDS011;1320;48.128;11.592;2022-08-26T15:29:36;12.40;;;8.50;;
2620;SDS011;1320;48.128;11.592;2022-08-26T15:32:02;13.33;;;8.57;;
2620;SDS011;1320;48.128;11.592;2022-08-26T15:34:28;19.03;;;9.93;;
2620;SDS011;1320;48.128;11.592;2022-08-26T15:36:55;10.47;;;7.40;;
2620;SDS011;1320;48.128;11.592;2022-08-26T15:39:21;12.73;;;9.83;;
2620;SDS011;1320;48.128;11.592;2022-08-26T15:41:47;10.87;;;8.83;;
2620;SDS011;1320;48.128;11.592;2022-08-26T15:44:14;12.30;;;10.10;;
2620;SDS011;1320;48.128;11.592;2022-08-26T15:46:41;12.87;;;10.43;;
2620;SDS011;1320;48.128;11.592;2022-08-26T15:49:07;18.27;;;10.67;;
2620;SDS011;1320;48.128;11.592;2022-08-26T15:51:34;11.90;;;9.07;;
2620;SDS011;1320;48.128;11.592;2022-08-26T15:54:03;21.07;;;10.30;;
2620;SDS011;1320;48.128;11.592;2022-08-26T15:56:30;12.83;;;9.87;;
2620;SDS011;1320;48.128;11.592;2022-08-26T15:59:00;15.10;;;8.93;;
2620;SDS011;1320;48.128;11.592;2022-08-26T16:01:27;13.17;;;11.40;;
2620;SDS011;1320;48.128;11.592;2022-08-26T16:03:53;14.70;;;10.70;;
2620;SDS011;1320;48.128;11.592;2022-08-26T16:06:21;13.47;;;11.70;;
2620;SDS011;1320;48.128;11.592;2022-08-26T16:08:49;16.03;;;12.53;;
2620;SDS011;1320;48.128;11.592;2022-08-26T16:11:15;14.03;;;9.80;;
2620;SDS011;1320;48.128;11.592;2022-08-26T16:13:43;15.27;;;11.10;;